createdAt,value
2017-09-08T00:02:21.120Z,14.13
2017-09-08T00:04:48.549Z,16.87
2017-09-08T00:07:16.750Z,21.20
2017-09-08T00:09:44.273Z,26.23
2017-09-08T00:12:12.473Z,14.07
2017-09-08T00:14:39.912Z,19.70
2017-09-08T00:17:07.345Z,22.03
2017-09-08T00:19:34.791Z,17.33
2017-09-08T00:22:02.225Z,19.57
2017-09-08T00:24:29.663Z,24.23
2017-09-08T00:26:57.097Z,23.40
2017-09-08T00:29:25.302Z,15.60
2017-09-08T00:31:52.729Z,20.07
2017-09-08T00:34:20.998Z,18.17
2017-09-08T00:36:49.197Z,17.90
2017-09-08T00:39:16.724Z,25.60
2017-09-08T00:41:44.921Z,16.97
2017-09-08T00:44:12.367Z,18.03
2017-09-08T00:46:40.560Z,15.40
2017-09-08T00:49:08.002Z,26.93
2017-09-08T00:51:36.203Z,28.77
2017-09-08T00:54:03.644Z,28.73
2017-09-08T00:56:31.077Z,26.53
2017-09-08T00:58:59.300Z,21.47
2017-09-08T01:01:26.730Z,14.70
2017-09-08T01:03:54.166Z,15.40
2017-09-08T01:06:22.378Z,23.00
2017-09-08T01:08:49.825Z,15.00
2017-09-08T01:11:17.258Z,16.90
2017-09-08T01:13:45.467Z,17.43
2017-09-08T01:16:14.938Z,18.13
2017-09-08T01:18:43.676Z,19.97
2017-09-08T01:21:11.117Z,19.47
2017-09-08T01:23:38.545Z,21.60
2017-09-08T01:26:06.758Z,20.47
2017-09-08T01:28:34.193Z,14.80
2017-09-08T01:31:01.620Z,15.13
2017-09-08T01:33:29.816Z,26.57
2017-09-08T01:35:57.254Z,21.80
2017-09-08T01:38:25.449Z,24.80
2017-09-08T01:40:52.884Z,25.97
2017-09-08T01:43:21.075Z,23.10
2017-09-08T01:45:48.512Z,13.43
2017-09-08T01:48:16.712Z,22.80
2017-09-08T01:50:44.139Z,18.30
2017-09-08T01:53:11.566Z,31.23
2017-09-08T01:55:39.060Z,18.23
2017-09-08T01:58:07.256Z,24.73
2017-09-08T02:00:34.685Z,17.97
2017-09-08T02:03:02.937Z,11.80
2017-09-08T02:05:30.385Z,25.33
2017-09-08T02:07:57.836Z,22.37
2017-09-08T02:10:25.273Z,31.13
2017-09-08T02:12:52.703Z,23.33
2017-09-08T02:15:20.128Z,17.07
2017-09-08T02:17:47.568Z,26.83
2017-09-08T02:20:15.061Z,25.20
2017-09-08T02:22:43.266Z,16.37
2017-09-08T02:25:10.690Z,20.93
2017-09-08T02:27:38.907Z,18.20
2017-09-08T02:30:06.324Z,31.17
2017-09-08T02:32:34.527Z,18.13
2017-09-08T02:35:01.962Z,24.10
2017-09-08T02:37:30.177Z,20.67
2017-09-08T02:39:57.613Z,25.77
2017-09-08T02:42:25.054Z,20.30
2017-09-08T02:44:53.259Z,20.03
2017-09-08T02:47:20.700Z,17.47
2017-09-08T02:49:48.143Z,19.40
2017-09-08T02:52:15.575Z,21.37
2017-09-08T02:54:43.004Z,19.00
2017-09-08T02:57:10.445Z,15.63
2017-09-08T02:59:37.883Z,18.13
2017-09-08T03:02:05.308Z,15.30
2017-09-08T03:04:33.516Z,19.50
2017-09-08T03:07:00.969Z,19.67
2017-09-08T03:09:29.151Z,15.07
2017-09-08T03:11:56.576Z,18.43
2017-09-08T03:14:24.778Z,12.00
2017-09-08T03:16:52.207Z,14.23
2017-09-08T03:19:20.424Z,24.67
2017-09-08T03:21:47.849Z,16.33
2017-09-08T03:24:16.055Z,13.20
2017-09-08T03:26:43.486Z,17.90
2017-09-08T03:29:11.692Z,17.07
2017-09-08T03:31:39.131Z,13.80
2017-09-08T03:34:06.567Z,19.23
2017-09-08T03:36:33.992Z,14.53
2017-09-08T03:39:01.468Z,17.23
2017-09-08T03:41:29.677Z,14.93
2017-09-08T03:43:57.115Z,14.00
2017-09-08T03:46:25.319Z,19.80
2017-09-08T03:48:52.761Z,23.10
2017-09-08T03:51:20.188Z,21.70
2017-09-08T03:53:48.389Z,25.00
2017-09-08T03:56:15.833Z,19.63
2017-09-08T03:58:44.352Z,18.60
2017-09-08T04:01:11.791Z,13.27
2017-09-08T04:03:39.216Z,14.40
2017-09-08T04:06:07.412Z,16.10
2017-09-08T04:08:34.843Z,13.90
2017-09-08T04:11:03.053Z,21.93
2017-09-08T04:13:30.475Z,15.50
2017-09-08T04:15:58.676Z,18.67
2017-09-08T04:18:26.104Z,17.60
2017-09-08T04:20:53.536Z,19.80
2017-09-08T04:23:20.977Z,13.10
2017-09-08T04:25:48.408Z,26.13
2017-09-08T04:28:15.849Z,23.57
2017-09-08T04:30:44.055Z,10.47
2017-09-08T04:33:11.488Z,22.90
2017-09-08T04:35:38.996Z,15.43
2017-09-08T04:38:06.434Z,20.13
2017-09-08T04:40:33.867Z,13.07
2017-09-08T04:43:01.292Z,19.70
2017-09-08T04:45:29.500Z,12.83
2017-09-08T04:47:56.945Z,22.03
2017-09-08T04:50:24.373Z,14.90
2017-09-08T04:52:51.809Z,24.23
2017-09-08T04:55:19.240Z,15.43
2017-09-08T04:57:46.673Z,22.00
2017-09-08T05:00:14.099Z,19.67
2017-09-08T05:02:42.421Z,19.77
2017-09-08T05:05:09.843Z,21.80
2017-09-08T05:07:38.050Z,19.23
2017-09-08T05:10:05.475Z,19.90
2017-09-08T05:12:33.729Z,20.13
2017-09-08T05:15:01.160Z,15.23
2017-09-08T05:17:28.598Z,12.87
2017-09-08T05:19:56.028Z,20.00
2017-09-08T05:22:24.257Z,22.30
2017-09-08T05:24:52.468Z,20.37
2017-09-08T05:27:20.682Z,19.87
2017-09-08T05:29:48.108Z,22.50
2017-09-08T05:32:16.319Z,20.43
2017-09-08T05:34:43.748Z,15.07
2017-09-08T05:37:11.192Z,24.27
2017-09-08T05:39:39.387Z,20.30
2017-09-08T05:42:06.809Z,15.03
2017-09-08T05:44:35.027Z,15.40
2017-09-08T05:47:02.447Z,19.63
2017-09-08T05:49:30.731Z,10.73
2017-09-08T05:52:01.060Z,22.37
2017-09-08T05:54:29.266Z,15.60
2017-09-08T05:56:57.306Z,18.83
2017-09-08T05:59:24.956Z,12.70
2017-09-08T06:01:52.375Z,18.63
2017-09-08T06:04:19.832Z,17.80
2017-09-08T06:06:48.348Z,19.87
2017-09-08T06:09:16.556Z,19.60
2017-09-08T06:11:44.004Z,11.33
2017-09-08T06:14:11.443Z,16.47
2017-09-08T06:16:39.644Z,19.33
2017-09-08T06:19:07.106Z,20.17
2017-09-08T06:21:34.529Z,19.60
2017-09-08T06:24:02.736Z,10.00
2017-09-08T06:26:32.211Z,16.70
2017-09-08T06:29:00.437Z,19.27
2017-09-08T06:31:27.867Z,11.83
2017-09-08T06:33:55.305Z,16.33
2017-09-08T06:36:23.512Z,14.17
2017-09-08T06:38:50.956Z,19.67
2017-09-08T06:41:19.409Z,17.13
2017-09-08T06:43:47.609Z,14.47
2017-09-08T06:46:15.048Z,13.37
2017-09-08T06:48:43.264Z,13.93
2017-09-08T06:51:11.542Z,12.63
2017-09-08T06:53:38.950Z,17.43
2017-09-08T06:56:07.165Z,21.57
2017-09-08T06:58:34.596Z,14.13
2017-09-08T07:01:02.037Z,13.90
2017-09-08T07:03:29.463Z,18.00
2017-09-08T07:05:56.918Z,12.00
2017-09-08T07:08:24.336Z,21.30
2017-09-08T07:10:51.767Z,9.50
2017-09-08T07:13:19.964Z,13.77
2017-09-08T07:15:47.399Z,21.37
2017-09-08T07:18:14.897Z,10.00
2017-09-08T07:20:42.339Z,15.70
2017-09-08T07:23:09.764Z,16.63
2017-09-08T07:25:37.193Z,9.33
2017-09-08T07:28:04.624Z,12.70
2017-09-08T07:30:32.062Z,11.40
2017-09-08T07:32:59.493Z,17.73
2017-09-08T07:35:26.954Z,10.10
2017-09-08T07:37:54.417Z,16.33
2017-09-08T07:40:22.627Z,14.87
2017-09-08T07:42:50.110Z,17.03
2017-09-08T07:45:17.544Z,14.50
2017-09-08T07:47:44.982Z,16.97
2017-09-08T07:50:12.399Z,13.57
2017-09-08T07:52:39.832Z,10.60
2017-09-08T07:55:07.256Z,8.37
2017-09-08T07:57:34.689Z,17.93
2017-09-08T08:00:02.896Z,8.77
2017-09-08T08:02:30.607Z,11.10
2017-09-08T08:04:58.022Z,20.40
2017-09-08T08:07:25.449Z,10.17
2017-09-08T08:09:52.881Z,12.30
2017-09-08T08:12:21.092Z,16.90
2017-09-08T08:14:49.406Z,18.00
2017-09-08T08:17:17.173Z,13.83
2017-09-08T08:19:44.597Z,14.03
2017-09-08T08:22:12.015Z,8.23
2017-09-08T08:24:40.208Z,13.67
2017-09-08T08:27:07.635Z,11.80
2017-09-08T08:29:35.060Z,16.07
2017-09-08T08:32:02.502Z,6.23
2017-09-08T08:34:34.617Z,9.87
2017-09-08T08:37:02.069Z,14.70
2017-09-08T08:39:29.488Z,15.20
2017-09-08T08:41:56.915Z,11.30
2017-09-08T08:44:24.348Z,10.57
2017-09-08T08:46:52.541Z,17.80
2017-09-08T08:49:19.977Z,12.13
2017-09-08T08:51:48.179Z,12.93
2017-09-08T08:54:15.616Z,11.13
2017-09-08T08:56:48.904Z,21.00
2017-09-08T08:59:17.105Z,10.23
2017-09-08T09:01:44.538Z,11.87
2017-09-08T09:04:12.737Z,16.93
2017-09-08T09:06:40.169Z,13.97
2017-09-08T09:09:08.363Z,9.93
2017-09-08T09:11:35.795Z,12.47
2017-09-08T09:14:03.984Z,17.07
2017-09-08T09:16:33.471Z,12.50
2017-09-08T09:19:00.899Z,16.60
2017-09-08T09:21:28.325Z,8.67
2017-09-08T09:23:55.755Z,14.20
2017-09-08T09:26:23.954Z,12.43
2017-09-08T09:28:51.384Z,12.83
2017-09-08T09:31:19.581Z,16.57
2017-09-08T09:33:47.011Z,12.60
2017-09-08T09:36:15.209Z,11.20
2017-09-08T09:38:42.900Z,10.30
2017-09-08T09:41:10.316Z,12.23
2017-09-08T09:43:37.751Z,11.97
2017-09-08T09:46:05.183Z,11.67
2017-09-08T09:48:32.628Z,19.50
2017-09-08T09:51:00.056Z,9.93
2017-09-08T09:53:27.484Z,11.67
2017-09-08T09:55:54.911Z,19.37
2017-09-08T09:58:22.392Z,16.80
2017-09-08T10:00:49.829Z,11.87
2017-09-08T10:03:17.258Z,15.40
2017-09-08T10:05:44.700Z,14.83
2017-09-08T10:08:12.129Z,11.57
2017-09-08T10:10:41.423Z,11.10
2017-09-08T10:13:08.856Z,11.20
2017-09-08T10:15:39.955Z,15.03
2017-09-08T10:18:08.253Z,11.43
2017-09-08T10:20:35.684Z,13.27
2017-09-08T10:23:03.108Z,15.50
2017-09-08T10:25:31.317Z,16.20
2017-09-08T10:27:58.741Z,14.60
2017-09-08T10:30:26.932Z,14.30
2017-09-08T10:33:00.193Z,12.30
2017-09-08T10:35:27.603Z,12.00
2017-09-08T10:37:55.026Z,12.63
2017-09-08T10:40:23.031Z,7.83
2017-09-08T10:42:51.678Z,8.60
2017-09-08T10:45:19.083Z,14.40
2017-09-08T10:47:46.523Z,12.07
2017-09-08T10:50:14.020Z,13.60
2017-09-08T10:52:41.444Z,9.33
2017-09-08T10:55:08.875Z,10.63
2017-09-08T10:57:38.167Z,10.60
2017-09-08T11:00:06.431Z,13.73
2017-09-08T11:02:33.902Z,12.20
2017-09-08T11:05:02.258Z,14.87
2017-09-08T11:07:29.737Z,13.67
2017-09-08T11:09:58.440Z,7.17
2017-09-08T11:12:26.058Z,14.63
2017-09-08T11:14:53.480Z,13.13
2017-09-08T11:17:20.948Z,15.13
2017-09-08T11:19:48.386Z,11.27
2017-09-08T11:22:15.824Z,12.03
2017-09-08T11:24:44.056Z,12.60
2017-09-08T11:27:11.501Z,18.50
2017-09-08T11:29:38.937Z,16.17
2017-09-08T11:32:06.367Z,12.90
2017-09-08T11:34:40.195Z,14.30
2017-09-08T11:37:09.400Z,10.23
2017-09-08T11:39:37.625Z,9.97
2017-09-08T11:42:05.066Z,16.30
2017-09-08T11:44:32.499Z,12.77
2017-09-08T11:46:59.924Z,9.27
2017-09-08T11:49:27.361Z,14.07
2017-09-08T11:51:55.567Z,11.10
2017-09-08T11:54:22.997Z,13.40
2017-09-08T11:56:50.428Z,12.53
2017-09-08T11:59:17.855Z,12.07
2017-09-08T12:01:45.283Z,13.10
2017-09-08T12:04:12.717Z,16.57
2017-09-08T12:06:40.148Z,10.73
2017-09-08T12:09:07.581Z,18.10
2017-09-08T12:11:35.015Z,9.83
2017-09-08T12:14:02.457Z,7.60
2017-09-08T12:16:30.640Z,5.00
2017-09-08T12:18:58.081Z,10.43
2017-09-08T12:21:25.504Z,7.10
2017-09-08T12:23:52.940Z,7.03
2017-09-08T12:26:20.365Z,11.23
2017-09-08T12:28:47.797Z,9.27
2017-09-08T12:34:12.209Z,7.30
2017-09-08T12:36:40.395Z,5.80
2017-09-08T12:39:07.828Z,5.27
2017-09-08T12:41:35.243Z,9.10
2017-09-08T12:44:02.705Z,6.60
2017-09-08T12:46:30.134Z,9.43
2017-09-08T12:48:57.564Z,5.83
2017-09-08T12:51:29.012Z,7.43
2017-09-08T12:53:57.216Z,3.27
2017-09-08T12:56:24.650Z,4.77
2017-09-08T12:58:56.297Z,10.57
2017-09-08T13:01:24.500Z,6.63
2017-09-08T13:03:51.924Z,3.30
2017-09-08T13:06:19.363Z,4.60
2017-09-08T13:08:46.780Z,10.40
2017-09-08T13:11:14.208Z,5.50
2017-09-08T13:13:42.404Z,4.80
2017-09-08T13:16:09.835Z,5.33
2017-09-08T13:18:39.226Z,4.70
2017-09-08T13:21:06.656Z,6.27
2017-09-08T13:23:34.077Z,6.93
2017-09-08T13:26:01.513Z,10.70
2017-09-08T13:28:29.700Z,4.30
2017-09-08T13:30:57.132Z,3.33
2017-09-08T13:33:24.560Z,8.27
2017-09-08T13:35:51.995Z,4.60
2017-09-08T13:38:19.417Z,9.60
2017-09-08T13:40:53.477Z,4.57
2017-09-08T13:43:20.903Z,8.23
2017-09-08T13:45:48.328Z,8.40
2017-09-08T13:48:15.764Z,4.77
2017-09-08T13:50:54.685Z,4.87
2017-09-08T13:53:22.125Z,9.63
2017-09-08T13:55:49.548Z,6.63
2017-09-08T13:58:16.976Z,6.00
2017-09-08T14:00:44.421Z,3.77
2017-09-08T14:03:11.848Z,4.00
2017-09-08T14:05:39.275Z,4.23
2017-09-08T14:08:06.699Z,6.83
2017-09-08T14:10:34.161Z,9.30
2017-09-08T14:13:02.370Z,7.07
2017-09-08T14:15:29.789Z,5.53
2017-09-08T14:17:57.224Z,4.70
2017-09-08T14:20:24.645Z,3.33
2017-09-08T14:22:52.084Z,4.80
2017-09-08T14:25:20.271Z,4.53
2017-09-08T14:27:47.704Z,6.73
2017-09-08T14:30:15.136Z,4.20
2017-09-08T14:32:42.573Z,3.03
2017-09-08T14:35:09.992Z,5.03
2017-09-08T14:37:37.420Z,3.17
2017-09-08T14:40:04.842Z,3.37
2017-09-08T14:42:32.271Z,3.40
2017-09-08T14:44:59.705Z,5.50
2017-09-08T14:47:27.896Z,3.40
2017-09-08T14:49:55.320Z,1.80
2017-09-08T14:52:23.512Z,6.13
2017-09-08T14:54:51.732Z,3.97
2017-09-08T14:57:19.140Z,3.30
2017-09-08T14:59:47.363Z,6.87
2017-09-08T15:02:14.771Z,6.83
2017-09-08T15:04:42.209Z,3.63
2017-09-08T15:07:09.639Z,7.50
2017-09-08T15:09:37.071Z,5.90
2017-09-08T15:12:04.509Z,5.60
2017-09-08T15:14:32.728Z,6.10
2017-09-08T15:17:00.140Z,2.83
2017-09-08T15:19:32.076Z,2.53
2017-09-08T15:22:00.268Z,7.40
2017-09-08T15:24:28.475Z,5.80
2017-09-08T15:26:55.901Z,4.13
2017-09-08T15:29:23.323Z,6.50
2017-09-08T15:31:50.773Z,5.07
2017-09-08T15:34:18.208Z,3.47
2017-09-08T15:36:45.640Z,7.13
2017-09-08T15:39:13.068Z,4.73
2017-09-08T15:41:41.262Z,5.90
2017-09-08T15:44:09.467Z,7.80
2017-09-08T15:46:36.896Z,5.10
2017-09-08T15:49:04.361Z,4.13
2017-09-08T15:51:31.780Z,6.70
2017-09-08T15:53:59.204Z,4.70
2017-09-08T15:56:26.749Z,8.73
2017-09-08T15:58:54.184Z,6.13
2017-09-08T16:01:22.377Z,5.77
2017-09-08T16:03:49.805Z,3.20
2017-09-08T16:06:18.033Z,4.00
2017-09-08T16:08:45.436Z,2.87
2017-09-08T16:11:13.638Z,6.40
2017-09-08T16:13:41.061Z,4.57
2017-09-08T16:16:09.257Z,8.93
2017-09-08T16:18:36.676Z,4.77
2017-09-08T16:21:04.108Z,6.93
2017-09-08T16:23:31.762Z,5.33
2017-09-08T16:25:59.179Z,7.13
2017-09-08T16:28:26.728Z,7.03
2017-09-08T16:30:54.222Z,4.63
2017-09-08T16:33:21.645Z,11.13
2017-09-08T16:35:49.849Z,9.10
2017-09-08T16:38:17.276Z,5.30
2017-09-08T16:40:44.920Z,4.40
2017-09-08T16:43:13.108Z,5.43
2017-09-08T16:45:41.308Z,3.53
2017-09-08T16:48:08.730Z,6.30
2017-09-08T16:50:36.915Z,6.73
2017-09-08T16:53:05.118Z,5.50
2017-09-08T16:55:32.536Z,6.27
2017-09-08T16:58:00.735Z,6.47
2017-09-08T17:00:28.157Z,5.37
2017-09-08T17:02:55.580Z,4.60
2017-09-08T17:05:23.085Z,4.40
2017-09-08T17:07:51.276Z,5.40
2017-09-08T17:10:18.695Z,6.23
2017-09-08T17:12:46.163Z,8.27
2017-09-08T17:15:14.384Z,8.03
2017-09-08T17:17:41.854Z,8.17
2017-09-08T17:20:09.276Z,5.10
2017-09-08T17:22:37.682Z,8.97
2017-09-08T17:25:05.097Z,6.13
2017-09-08T17:27:33.292Z,8.20
2017-09-08T17:30:00.729Z,7.60
2017-09-08T17:32:28.929Z,9.07
2017-09-08T17:34:56.347Z,6.97
2017-09-08T17:37:24.620Z,6.20
2017-09-08T17:39:52.029Z,6.57
2017-09-08T17:42:19.491Z,6.03
2017-09-08T17:44:46.915Z,8.33
2017-09-08T17:47:15.120Z,10.43
2017-09-08T17:49:42.552Z,11.00
2017-09-08T17:52:09.985Z,6.90
2017-09-08T17:54:38.188Z,10.93
2017-09-08T17:57:05.612Z,6.73
2017-09-08T17:59:33.771Z,7.80
2017-09-08T18:02:01.276Z,10.80
2017-09-08T18:04:29.016Z,4.40
2017-09-08T18:06:57.220Z,7.97
2017-09-08T18:09:24.657Z,8.30
2017-09-08T18:11:52.849Z,11.70
2017-09-08T18:14:20.276Z,4.93
2017-09-08T18:16:48.477Z,8.90
2017-09-08T18:19:15.926Z,10.73
2017-09-08T18:21:44.096Z,7.90
2017-09-08T18:24:12.313Z,6.27
2017-09-08T18:26:39.726Z,6.63
2017-09-08T18:29:08.050Z,7.10
2017-09-08T18:31:35.459Z,17.73
2017-09-08T18:34:03.656Z,5.60
2017-09-08T18:36:31.079Z,7.50
2017-09-08T18:38:58.553Z,4.60
2017-09-08T18:41:25.986Z,4.50
2017-09-08T18:43:53.444Z,5.90
2017-09-08T18:46:20.885Z,4.47
2017-09-08T18:48:48.318Z,3.40
2017-09-08T18:51:15.745Z,8.00
2017-09-08T18:53:43.177Z,9.50
2017-09-08T18:56:10.645Z,12.30
2017-09-08T18:58:38.840Z,4.63
2017-09-08T19:01:06.275Z,7.40
2017-09-08T19:03:34.469Z,12.93
2017-09-08T19:06:01.910Z,7.67
2017-09-08T19:08:30.165Z,3.27
2017-09-08T19:10:58.367Z,8.90
2017-09-08T19:13:25.870Z,7.20
2017-09-08T19:15:53.309Z,12.20
2017-09-08T19:18:20.733Z,4.10
2017-09-08T19:20:48.954Z,4.93
2017-09-08T19:23:16.377Z,5.60
2017-09-08T19:25:43.811Z,4.70
2017-09-08T19:28:12.005Z,6.10
2017-09-08T19:30:39.447Z,4.23
2017-09-08T19:33:07.642Z,4.33
2017-09-08T19:35:35.093Z,5.97
2017-09-08T19:38:02.517Z,13.10
2017-09-08T19:40:30.707Z,13.07
2017-09-08T19:42:58.934Z,10.70
2017-09-08T19:45:26.374Z,8.33
2017-09-08T19:47:53.812Z,7.07
2017-09-08T19:50:22.019Z,6.73
2017-09-08T19:52:49.448Z,10.87
2017-09-08T19:55:16.905Z,10.07
2017-09-08T19:57:44.328Z,7.50
2017-09-08T20:00:12.537Z,9.40
2017-09-08T20:02:39.973Z,8.40
2017-09-08T20:05:07.407Z,12.47
2017-09-08T20:07:34.857Z,12.03
2017-09-08T20:10:02.300Z,5.67
2017-09-08T20:12:29.744Z,8.57
2017-09-08T20:14:57.179Z,6.50
2017-09-08T20:17:24.612Z,8.40
2017-09-08T20:19:52.823Z,7.67
2017-09-08T20:22:20.248Z,10.07
2017-09-08T20:24:48.455Z,9.10
2017-09-08T20:27:15.879Z,3.90
2017-09-08T20:29:43.312Z,5.90
2017-09-08T20:32:10.766Z,9.13
2017-09-08T20:34:38.195Z,6.80
2017-09-08T20:37:05.616Z,8.30
2017-09-08T20:39:33.062Z,4.80
2017-09-08T20:42:01.253Z,9.73
2017-09-08T20:44:28.680Z,7.40
2017-09-08T20:46:56.889Z,7.60
2017-09-08T20:49:24.327Z,7.80
2017-09-08T20:51:51.756Z,11.50
2017-09-08T20:54:19.193Z,4.37
2017-09-08T20:56:46.629Z,4.30
2017-09-08T20:59:14.106Z,7.30
2017-09-08T21:01:41.534Z,8.00
2017-09-08T21:04:08.968Z,11.20
2017-09-08T21:06:36.398Z,9.93
2017-09-08T21:09:03.904Z,8.87
2017-09-08T21:11:32.093Z,10.70
2017-09-08T21:13:59.527Z,6.70
2017-09-08T21:16:27.062Z,8.30
2017-09-08T21:18:55.256Z,6.80
2017-09-08T21:21:22.692Z,5.53
2017-09-08T21:23:50.908Z,3.80
2017-09-08T21:26:18.384Z,7.90
2017-09-08T21:28:45.812Z,10.53
2017-09-08T21:31:13.235Z,6.70
2017-09-08T21:33:41.452Z,9.60
2017-09-08T21:36:08.924Z,10.13
2017-09-08T21:38:36.363Z,13.03
2017-09-08T21:41:03.792Z,6.07
2017-09-08T21:43:31.226Z,13.07
2017-09-08T21:45:58.661Z,7.13
2017-09-08T21:48:26.120Z,4.80
2017-09-08T21:50:53.547Z,9.50
2017-09-08T21:53:20.967Z,12.10
2017-09-08T21:55:49.181Z,10.67
2017-09-08T21:58:16.612Z,9.10
2017-09-08T22:00:44.047Z,5.00
2017-09-08T22:03:12.256Z,8.20
2017-09-08T22:05:39.688Z,10.23
2017-09-08T22:08:07.884Z,10.57
2017-09-08T22:10:35.315Z,5.87
2017-09-08T22:13:03.513Z,8.00
2017-09-08T22:15:30.939Z,8.40
2017-09-08T22:17:58.412Z,7.60
2017-09-08T22:20:25.839Z,6.37
2017-09-08T22:22:53.271Z,4.57
2017-09-08T22:25:20.699Z,7.63
2017-09-08T22:27:48.124Z,7.97
2017-09-08T22:30:16.340Z,5.50
2017-09-08T22:32:43.771Z,3.90
2017-09-08T22:35:11.973Z,3.47
2017-09-08T22:37:39.394Z,6.57
2017-09-08T22:40:06.830Z,3.97
2017-09-08T22:42:34.265Z,7.63
2017-09-08T22:45:01.686Z,7.67
2017-09-08T22:47:29.120Z,7.70
2017-09-08T22:49:57.338Z,5.63
2017-09-08T22:52:24.779Z,8.13
2017-09-08T22:54:52.200Z,5.10
2017-09-08T22:57:19.637Z,10.70
2017-09-08T22:59:47.069Z,4.77
2017-09-08T23:02:14.491Z,7.47
2017-09-08T23:04:41.924Z,6.83
2017-09-08T23:07:09.357Z,4.17
2017-09-08T23:09:36.792Z,4.70
2017-09-08T23:12:04.216Z,5.07
2017-09-08T23:14:31.661Z,5.73
2017-09-08T23:17:01.877Z,5.20
2017-09-08T23:19:30.082Z,4.93
2017-09-08T23:21:57.524Z,5.80
2017-09-08T23:24:24.974Z,4.03
2017-09-08T23:26:53.536Z,6.47
2017-09-08T23:29:20.973Z,4.00
2017-09-08T23:31:48.420Z,5.40
2017-09-08T23:34:15.844Z,5.60
2017-09-08T23:36:43.264Z,7.57
2017-09-08T23:39:10.705Z,4.83
2017-09-08T23:41:38.902Z,10.80
2017-09-08T23:44:07.105Z,5.77
2017-09-08T23:46:34.536Z,3.00
2017-09-08T23:49:02.742Z,3.33
2017-09-08T23:51:30.159Z,8.40
2017-09-08T23:53:57.602Z,5.40
2017-09-08T23:56:25.034Z,9.90
2017-09-08T23:58:52.466Z,6.03
